createdAt,value
2023-05-09T00:01:40.274Z,100045.53
2023-05-09T00:05:42.069Z,100046.38
2023-05-09T00:09:44.184Z,100045.81
2023-05-09T00:13:46.082Z,100051.41
2023-05-09T00:17:48.158Z,100044.16
2023-05-09T00:21:49.917Z,100040.00
2023-05-09T00:25:51.904Z,100031.13
2023-05-09T00:29:54.381Z,100036.94
2023-05-09T00:33:56.086Z,100026.94
2023-05-09T00:37:57.835Z,100035.28
2023-05-09T00:41:59.614Z,100020.81
2023-05-09T00:46:01.566Z,100013.59
2023-05-09T00:50:03.789Z,100017.50
2023-05-09T00:54:07.687Z,100016.91
2023-05-09T00:58:11.461Z,100011.34
2023-05-09T01:02:13.387Z,100000.81
2023-05-09T01:06:39.853Z,100000.25
2023-05-09T01:10:54.996Z,99988.03
2023-05-09T01:15:45.177Z,99983.03
2023-05-09T01:20:14.635Z,99996.63
2023-05-09T01:24:31.287Z,99986.91
2023-05-09T01:28:56.542Z,99993.59
2023-05-09T01:33:05.704Z,99983.84
2023-05-09T01:37:09.401Z,99980.81
2023-05-09T01:41:13.426Z,99977.75
2023-05-09T01:45:16.180Z,99975.53
2023-05-09T01:49:20.512Z,99970.81
2023-05-09T01:53:24.663Z,99951.66
2023-05-09T01:57:28.286Z,99950.00
2023-05-09T02:01:30.558Z,99954.69
2023-05-09T02:05:33.367Z,99949.97
2023-05-09T02:09:35.119Z,99955.47
2023-05-09T02:13:38.492Z,99961.84
2023-05-09T02:17:40.175Z,99953.44
2023-05-09T02:21:41.973Z,99953.41
2023-05-09T02:25:46.579Z,99948.41
2023-05-09T02:29:51.925Z,99949.81
2023-05-09T02:33:55.016Z,99942.31
2023-05-09T02:37:59.381Z,99932.03
2023-05-09T02:42:07.186Z,99937.25
2023-05-09T02:46:10.725Z,99936.09
2023-05-09T02:50:12.592Z,99935.50
2023-05-09T02:54:14.306Z,99931.56
2023-05-09T02:58:16.237Z,99928.47
2023-05-09T03:02:19.498Z,99931.50
2023-05-09T03:06:21.832Z,99929.78
2023-05-09T03:10:23.496Z,99937.22
2023-05-09T03:14:25.403Z,99933.59
2023-05-09T03:18:27.122Z,99922.22
2023-05-09T03:22:29.568Z,99914.44
2023-05-09T03:26:36.346Z,99908.63
2023-05-09T03:30:38.121Z,99906.38
2023-05-09T03:34:43.588Z,99910.78
2023-05-09T03:38:45.841Z,99897.47
2023-05-09T03:42:48.413Z,99897.16
2023-05-09T03:46:50.508Z,99903.25
2023-05-09T03:50:52.535Z,99901.84
2023-05-09T03:54:55.437Z,99904.59
2023-05-09T03:58:57.725Z,99892.97
2023-05-09T04:03:01.176Z,99897.06
2023-05-09T04:07:09.231Z,99908.16
2023-05-09T04:11:11.560Z,99915.59
2023-05-09T04:15:16.947Z,99916.44
2023-05-09T04:19:19.197Z,99907.06
2023-05-09T04:23:21.082Z,99903.53
2023-05-09T04:27:23.904Z,99901.91
2023-05-09T04:31:28.082Z,99898.41
2023-05-09T04:35:30.843Z,99905.44
2023-05-09T04:39:32.694Z,99901.59
2023-05-09T04:43:41.577Z,99892.00
2023-05-09T04:47:43.511Z,99897.31
2023-05-09T04:51:45.414Z,99896.50
2023-05-09T04:55:47.086Z,99895.97
2023-05-09T04:59:50.276Z,99894.09
2023-05-09T05:03:53.132Z,99879.19
2023-05-09T05:07:54.966Z,99880.56
2023-05-09T05:12:02.909Z,99873.66
2023-05-09T05:16:07.143Z,99874.22
2023-05-09T05:20:10.762Z,99883.09
2023-05-09T05:24:16.922Z,99876.69
2023-05-09T05:28:18.832Z,99881.41
2023-05-09T05:32:20.751Z,99879.66
2023-05-09T05:36:22.817Z,99881.84
2023-05-09T05:40:24.518Z,99868.44
2023-05-09T05:44:27.917Z,99870.59
2023-05-09T05:48:29.696Z,99872.22
2023-05-09T05:52:33.002Z,99870.78
2023-05-09T05:56:36.439Z,99867.00
2023-05-09T06:00:42.175Z,99866.06
2023-05-09T06:04:44.080Z,99860.72
2023-05-09T06:08:46.213Z,99855.13
2023-05-09T06:12:49.814Z,99850.59
2023-05-09T06:16:53.313Z,99853.13
2023-05-09T06:20:55.157Z,99851.19
2023-05-09T06:24:56.872Z,99843.84
2023-05-09T06:28:58.606Z,99833.38
2023-05-09T06:33:00.587Z,99828.97
2023-05-09T06:37:02.482Z,99833.16
2023-05-09T06:41:04.353Z,99832.34
2023-05-09T06:45:06.838Z,99827.22
2023-05-09T06:49:08.655Z,99826.72
2023-05-09T06:53:10.326Z,99822.50
2023-05-09T06:57:12.014Z,99815.03
2023-05-09T07:01:15.539Z,99820.63
2023-05-09T07:05:19.144Z,99811.63
2023-05-09T07:09:21.050Z,99808.38
2023-05-09T07:13:22.975Z,99799.16
2023-05-09T07:17:25.432Z,99798.06
2023-05-09T07:21:27.266Z,99791.50
2023-05-09T07:25:28.979Z,99789.31
2023-05-09T07:29:30.834Z,99780.63
2023-05-09T07:33:33.855Z,99780.13
2023-05-09T07:37:35.569Z,99771.97
2023-05-09T07:41:37.315Z,99764.50
2023-05-09T07:45:40.129Z,99757.28
2023-05-09T07:49:43.633Z,99757.03
2023-05-09T07:53:45.519Z,99759.00
2023-05-09T07:57:47.856Z,99762.34
2023-05-09T08:01:49.670Z,99759.94
2023-05-09T08:06:00.207Z,99746.41
2023-05-09T08:10:02.050Z,99746.78
2023-05-09T08:14:03.781Z,99738.34
2023-05-09T08:18:06.544Z,99745.66
2023-05-09T08:22:08.391Z,99744.63
2023-05-09T08:26:10.086Z,99727.88
2023-05-09T08:30:12.467Z,99719.06
2023-05-09T08:34:14.410Z,99718.16
2023-05-09T08:38:16.060Z,99705.59
2023-05-09T08:42:20.816Z,99699.81
2023-05-09T08:46:34.046Z,99698.56
2023-05-09T08:50:36.145Z,99700.94
2023-05-09T08:54:38.462Z,99699.47
2023-05-09T08:58:40.466Z,99693.38
2023-05-09T09:02:45.041Z,99690.00
2023-05-09T09:06:47.374Z,99689.50
2023-05-09T09:10:49.269Z,99678.78
2023-05-09T09:14:54.082Z,99678.63
2023-05-09T09:18:59.226Z,99664.50
2023-05-09T09:23:04.923Z,99670.19
2023-05-09T09:27:06.878Z,99660.88
2023-05-09T09:31:28.661Z,99653.44
2023-05-09T09:35:38.978Z,99649.72
2023-05-09T09:39:54.069Z,99643.94
2023-05-09T09:43:58.804Z,99638.28
2023-05-09T09:48:07.113Z,99637.84
2023-05-09T09:52:08.825Z,99622.94
2023-05-09T09:56:11.312Z,99620.88
2023-05-09T10:00:14.755Z,99612.47
2023-05-09T10:04:17.037Z,99613.47
2023-05-09T10:08:26.965Z,99601.94
2023-05-09T10:12:35.482Z,99596.13
2023-05-09T10:16:43.536Z,99593.34
2023-05-09T10:20:53.416Z,99591.03
2023-05-09T10:25:03.024Z,99571.19
2023-05-09T10:29:10.648Z,99568.06
2023-05-09T10:33:16.560Z,99553.47
2023-05-09T10:37:18.602Z,99552.69
2023-05-09T10:41:22.208Z,99550.66
2023-05-09T10:45:24.282Z,99542.81
2023-05-09T10:49:26.464Z,99538.13
2023-05-09T10:53:45.276Z,99520.28
2023-05-09T10:57:54.158Z,99519.22
2023-05-09T11:02:01.121Z,99511.91
2023-05-09T11:06:02.993Z,99499.66
2023-05-09T11:10:09.345Z,99492.19
2023-05-09T11:14:29.270Z,99488.88
2023-05-09T11:18:33.749Z,99481.13
2023-05-09T11:22:40.117Z,99470.66
2023-05-09T11:26:48.221Z,99468.56
2023-05-09T11:30:53.549Z,99452.59
2023-05-09T11:35:07.638Z,99451.19
2023-05-09T11:39:10.874Z,99449.94
2023-05-09T11:43:13.137Z,99444.16
2023-05-09T11:47:16.604Z,99440.59
2023-05-09T11:51:19.503Z,99441.94
2023-05-09T11:55:24.135Z,99434.69
2023-05-09T11:59:28.385Z,99428.84
2023-05-09T12:03:30.369Z,99420.25
2023-05-09T12:07:32.474Z,99413.56
2023-05-09T12:11:35.143Z,99408.13
2023-05-09T12:15:38.307Z,99402.22
2023-05-09T12:19:40.137Z,99401.44
2023-05-09T12:23:41.871Z,99394.72
2023-05-09T12:27:45.556Z,99381.03
2023-05-09T12:31:48.019Z,99375.75
2023-05-09T12:36:08.669Z,99361.19
2023-05-09T12:40:15.960Z,99355.91
2023-05-09T12:44:22.667Z,99348.41
2023-05-09T12:48:25.541Z,99331.03
2023-05-09T12:52:34.510Z,99325.09
2023-05-09T12:56:36.315Z,99319.09
2023-05-09T13:00:45.102Z,99321.09
2023-05-09T13:04:47.461Z,99311.03
2023-05-09T13:08:57.638Z,99304.94
2023-05-09T13:12:59.402Z,99302.59
2023-05-09T13:17:01.512Z,99293.47
2023-05-09T13:21:03.662Z,99283.56
2023-05-09T13:25:06.182Z,99275.34
2023-05-09T13:29:08.517Z,99266.34
2023-05-09T13:33:24.627Z,99263.16
2023-05-09T13:37:31.218Z,99254.72
2023-05-09T13:41:38.125Z,99253.84
2023-05-09T13:45:40.091Z,99247.81
2023-05-09T13:49:41.850Z,99241.56
2023-05-09T13:53:43.515Z,99234.53
2023-05-09T13:57:46.807Z,99227.56
2023-05-09T14:01:48.578Z,99221.28
2023-05-09T14:05:54.235Z,99214.81
2023-05-09T14:10:10.562Z,99212.72
2023-05-09T14:14:13.195Z,99205.88
2023-05-09T14:18:20.087Z,99192.25
2023-05-09T14:22:23.078Z,99197.25
2023-05-09T14:26:26.749Z,99182.56
2023-05-09T14:30:30.862Z,99185.56
2023-05-09T14:34:34.646Z,99190.91
2023-05-09T14:38:37.014Z,99197.06
2023-05-09T14:42:38.751Z,99190.97
2023-05-09T14:46:40.397Z,99177.81
2023-05-09T14:50:42.248Z,99175.06
2023-05-09T14:54:46.284Z,99167.03
2023-05-09T14:58:47.948Z,99164.16
2023-05-09T15:02:50.599Z,99154.44
2023-05-09T15:06:52.673Z,99146.31
2023-05-09T15:10:54.552Z,99139.63
2023-05-09T15:15:11.728Z,99139.31
2023-05-09T15:19:13.407Z,99130.38
2023-05-09T15:23:15.200Z,99132.75
2023-05-09T15:27:17.086Z,99125.63
2023-05-09T15:31:21.831Z,99121.09
2023-05-09T15:35:23.719Z,99116.44
2023-05-09T15:39:26.119Z,99100.31
2023-05-09T15:43:27.840Z,99103.59
2023-05-09T15:47:29.721Z,99088.41
2023-05-09T15:51:32.192Z,99086.03
2023-05-09T15:55:35.612Z,99081.81
2023-05-09T15:59:37.524Z,99083.50
2023-05-09T16:03:39.352Z,99081.25
2023-05-09T16:07:46.174Z,99077.50
2023-05-09T16:11:48.080Z,99068.78
2023-05-09T16:15:51.221Z,99066.72
2023-05-09T16:19:53.122Z,99066.56
2023-05-09T16:23:58.009Z,99062.78
2023-05-09T16:27:59.820Z,99060.28
2023-05-09T16:32:01.668Z,99063.56
2023-05-09T16:36:03.701Z,99059.94
2023-05-09T16:40:06.238Z,99063.38
2023-05-09T16:44:07.921Z,99050.88
2023-05-09T16:48:09.957Z,99042.00
2023-05-09T16:52:13.514Z,99031.34
2023-05-09T16:56:15.203Z,99034.44
2023-05-09T17:00:18.226Z,99033.31
2023-05-09T17:04:20.058Z,99035.44
2023-05-09T17:08:23.637Z,99025.41
2023-05-09T17:12:27.649Z,99031.31
2023-05-09T17:16:29.706Z,99034.56
2023-05-09T17:20:31.921Z,99034.66
2023-05-09T17:24:35.771Z,99030.78
2023-05-09T17:28:37.572Z,99017.03
2023-05-09T17:32:39.399Z,99019.97
2023-05-09T17:36:41.249Z,99016.88
2023-05-09T17:40:44.527Z,99016.72
2023-05-09T17:44:47.400Z,99055.69
2023-05-09T17:48:54.320Z,99056.16
2023-05-09T17:52:57.010Z,99020.72
2023-05-09T17:57:18.950Z,99029.47
2023-05-09T18:01:21.118Z,99021.44
2023-05-09T18:05:24.182Z,99020.09
2023-05-09T18:09:28.239Z,99025.47
2023-05-09T18:13:30.294Z,99017.72
2023-05-09T18:17:32.405Z,99017.84
2023-05-09T18:21:34.449Z,99020.19
2023-05-09T18:26:05.926Z,99023.91
2023-05-09T18:30:10.941Z,99027.47
2023-05-09T18:34:13.061Z,99047.41
2023-05-09T18:38:14.728Z,99047.19
2023-05-09T18:42:16.643Z,99051.94
2023-05-09T18:46:21.281Z,99054.44
2023-05-09T18:50:23.274Z,99066.56
2023-05-09T18:54:25.160Z,99063.59
2023-05-09T18:58:26.780Z,99074.25
2023-05-09T19:02:30.337Z,99094.09
2023-05-09T19:06:32.558Z,99092.59
2023-05-09T19:10:35.377Z,99094.47
2023-05-09T19:14:38.164Z,99091.91
2023-05-09T19:18:39.828Z,99085.16
2023-05-09T19:22:48.303Z,99087.84
2023-05-09T19:26:50.088Z,99087.66
2023-05-09T19:30:52.449Z,99075.53
2023-05-09T19:34:54.263Z,99068.94
2023-05-09T19:38:56.146Z,99075.59
2023-05-09T19:42:57.992Z,99074.53
2023-05-09T19:47:01.094Z,99072.03
2023-05-09T19:51:02.989Z,99066.28
2023-05-09T19:55:06.051Z,99072.94
2023-05-09T19:59:07.811Z,99068.53
2023-05-09T20:03:12.651Z,99062.44
2023-05-09T20:07:14.892Z,99068.28
2023-05-09T20:11:16.738Z,99079.63
2023-05-09T20:15:18.767Z,99077.97
2023-05-09T20:19:23.431Z,99079.91
2023-05-09T20:23:25.077Z,99074.38
2023-05-09T20:27:27.037Z,99072.50
2023-05-09T20:31:29.375Z,99063.63
2023-05-09T20:35:31.195Z,99067.81
2023-05-09T20:39:32.985Z,99063.69
2023-05-09T20:43:34.704Z,99068.69
2023-05-09T20:47:36.528Z,99065.94
2023-05-09T20:51:38.618Z,99067.06
2023-05-09T20:55:40.296Z,99064.28
2023-05-09T20:59:42.024Z,99062.88
2023-05-09T21:03:43.976Z,99048.19
2023-05-09T21:07:45.790Z,99049.81
2023-05-09T21:11:47.469Z,99048.41
2023-05-09T21:15:52.172Z,99056.19
2023-05-09T21:19:53.960Z,99045.41
2023-05-09T21:23:55.889Z,99040.97
2023-05-09T21:27:57.601Z,99039.31
2023-05-09T21:31:59.328Z,99033.25
2023-05-09T21:36:02.368Z,99033.25
2023-05-09T21:40:05.796Z,99034.38
2023-05-09T21:44:08.009Z,99018.03
2023-05-09T21:48:09.859Z,99022.75
2023-05-09T21:52:11.796Z,99023.06
2023-05-09T21:56:13.460Z,99022.75
2023-05-09T22:00:17.390Z,99015.88
2023-05-09T22:04:19.158Z,99023.34
2023-05-09T22:08:21.007Z,99016.97
2023-05-09T22:12:23.177Z,99011.75
2023-05-09T22:16:26.575Z,99004.53
2023-05-09T22:20:28.310Z,99009.78
2023-05-09T22:24:30.069Z,98997.03
2023-05-09T22:28:32.098Z,98994.25
2023-05-09T22:32:33.822Z,99001.75
2023-05-09T22:36:35.511Z,98996.28
2023-05-09T22:40:37.202Z,98997.53
2023-05-09T22:44:45.966Z,99003.44
2023-05-09T22:48:47.759Z,99018.25
2023-05-09T22:52:52.185Z,99026.06
2023-05-09T22:56:54.297Z,99041.66
2023-05-09T23:01:17.970Z,99042.50
2023-05-09T23:05:19.963Z,99040.94
2023-05-09T23:14:07.590Z,99045.66
2023-05-09T23:18:09.686Z,99052.63
2023-05-09T23:22:19.670Z,99048.28
2023-05-09T23:26:23.946Z,99058.88
2023-05-09T23:30:31.909Z,99061.66
2023-05-09T23:34:36.334Z,99062.25
2023-05-09T23:38:38.200Z,99076.16
2023-05-09T23:42:39.872Z,99064.59
2023-05-09T23:46:41.541Z,99070.97
2023-05-09T23:50:43.439Z,99068.75
2023-05-09T23:54:45.112Z,99071.84
2023-05-09T23:58:49.866Z,99059.91
